Norwegian Epic — C6XP7 — position and weather

sailwx.info

Track history (hours):
 
Tides and Currents Weather Stations Pressure Air Temp Water Temp Dewpoint Dewpoint Depression Visibility Wind Speed Wind Dir Waves Ship Positions

Norwegian Epic

Last reported at 2016-Feb-08 12:20 UTC. Time now 2016-Feb-08 21:07 UTC.
Position N 38°50' E 015°08'.

Length 329 m; draft 9 m.

Type: Passenger vessel. MMSI: 311018500.

Date/timePositionNaut miles runAvg speedWind from/ knotsBaromVisibWave heightAir tempDewpointWater temp
2016-Feb-08 12:20N 38°50' E 015°08'4 4.6
2016-Feb-08 11:27N 38°50' E 015°14'4 4.2
2016-Feb-08 10:32N 38°46' E 015°15'4 1.9
2016-Feb-08 08:29N 38°46' E 015°10'6 6.1
2016-Feb-08 07:32N 38°48' E 015°17'7 6.2
2016-Feb-08 06:24N 38°50' E 015°08'910.2
2016-Feb-08 05:30N 38°53' E 014°57'1010.1
2016-Feb-08 04:30N 38°55' E 014°44'33 7.8
2016-Feb-08 00:15N 38°42' E 014°05'7 9.2
2016-Feb-07 23:30N 38°36' E 014°01'9 9.2
2016-Feb-07 22:33N 38°33' E 013°50'7 7.3
2016-Feb-07 21:33N 38°41' E 013°52'8 7.7
2016-Feb-07 20:33N 38°34' E 013°56'9 9.1
2016-Feb-07 19:33N 38°27' E 013°48'10 9.7
2016-Feb-07 18:33N 38°20' E 013°39'9 9.1
2016-Feb-07 17:33N 38°14' E 013°31'7 7.1
2016-Feb-07 16:34N 38°08' E 013°25'3 2.5
2016-Feb-07 15:33N 38°08' E 013°22'0 0.0
2016-Feb-07 14:33N 38°08' E 013°22'0 0.0
2016-Feb-07 13:31N 38°08' E 013°22'0 0.0
2016-Feb-07 12:32N 38°08' E 013°22'0 0.0
2016-Feb-07 11:32N 38°08' E 013°22'0 0.0
2016-Feb-07 10:33N 38°08' E 013°22'0 0.0
2016-Feb-07 09:31N 38°08' E 013°22'0 0.0
2016-Feb-07 08:31N 38°08' E 013°22'0 0.0
2016-Feb-07 07:32N 38°08' E 013°22'1 0.7
2016-Feb-07 06:33N 38°07' E 013°23'6 5.5
2016-Feb-07 05:33N 38°12' E 013°26'1211.7
2016-Feb-07 04:33N 38°23' E 013°31'1110.6
2016-Feb-07 03:33N 38°25' E 013°18'1111.3
2016-Feb-07 02:33N 38°26' E 013°04'1211.6
2016-Feb-07 01:33N 38°27' E 012°49'1211.4
2016-Feb-07 00:28N 38°27' E 012°33'3 0.7
2016-Feb-06 20:33N 38°30' E 012°33'10 8.5
2016-Feb-06 19:24N 38°26' E 012°21'100 7.1
2016-Feb-06 05:21N 38°28' E 010°13'8 7.0
2016-Feb-06 04:12N 38°28' E 010°03'34 7.1
2016-Feb-05 23:26N 38°32' E 009°20'8 7.5
2016-Feb-05 22:26N 38°39' E 009°18'6 7.0
2016-Feb-05 21:34N 38°45' E 009°16'7 7.0
2016-Feb-05 20:33N 38°52' E 009°12'6 6.2
2016-Feb-05 19:33N 38°58' E 009°11'7 6.9
2016-Feb-05 18:33N 39°04' E 009°08'8 8.4
2016-Feb-05 17:33N 39°12' E 009°06'0 0.0
2016-Feb-05 16:31N 39°13' E 009°06'0 0.0
2016-Feb-05 15:32N 39°13' E 009°06'0 0.0
2016-Feb-05 14:33N 39°13' E 009°06'0 0.0
2016-Feb-05 13:33N 39°13' E 009°06'0 0.0
2016-Feb-05 12:31N 39°13' E 009°06'0 0.0
2016-Feb-05 11:32N 39°13' E 009°06'0 0.0
2016-Feb-05 10:32N 39°13' E 009°06'0 0.1
2016-Feb-05 09:33N 39°13' E 009°06'0 0.1
2016-Feb-05 08:31N 39°13' E 009°06'0 0.0
2016-Feb-05 07:31N 39°13' E 009°06'0 0.1
2016-Feb-05 06:33N 39°12' E 009°06'6 5.7
2016-Feb-05 05:33N 39°07' E 009°08'1211.9
2016-Feb-05 04:33N 38°57' E 009°16'1312.8
2016-Feb-05 03:33N 38°53' E 009°32'14 2.9
2016-Feb-04 22:33N 38°40' E 009°23'1313.3
2016-Feb-04 21:32N 38°38' E 009°07'1313.4
2016-Feb-04 20:33N 38°38' E 008°50'1614.1
2016-Feb-04 19:25N 38°37' E 008°29'23913.2
2016-Feb-04 01:22N 40°33' E 003°59'1613.3
2016-Feb-04 00:10N 40°39' E 003°39'813.5
2016-Feb-03 23:33N 40°43' E 003°29'1211.7
2016-Feb-03 22:34N 40°47' E 003°15'1111.0
2016-Feb-03 21:33N 40°49' E 003°01'9 8.6
2016-Feb-03 20:34N 40°57' E 002°58'1010.3
2016-Feb-03 19:33N 41°01' E 002°45'1111.2
2016-Feb-03 18:33N 41°07' E 002°32'1211.9
2016-Feb-03 17:31N 41°13' E 002°18'1010.0
2016-Feb-03 16:34N 41°21' E 002°10'1 0.4
2016-Feb-03 13:09N 41°22' E 002°11'0 0.0
2016-Feb-03 12:22N 41°22' E 002°11'0 0.0
2016-Feb-03 04:15N 41°22' E 002°11'0 0.2
2016-Feb-03 03:33N 41°22' E 002°11'8 8.0
2016-Feb-03 02:33N 41°14' E 002°09'1312.5
2016-Feb-03 01:33N 41°03' E 002°02'1413.8
2016-Feb-03 00:33N 40°50' E 001°53'1413.7
2016-Feb-02 23:33N 40°38' E 001°45'1413.9
2016-Feb-02 22:33N 40°26' E 001°37'1313.4
2016-Feb-02 21:33N 40°14' E 001°29'1313.4
2016-Feb-02 20:33N 40°02' E 001°21'1413.6
2016-Feb-02 19:33N 39°50' E 001°13'4213.8
2016-Feb-02 16:30N 39°12' E 000°48'1414.3
2016-Feb-02 15:33N 38°60' E 000°42'1414.0
2016-Feb-02 14:33N 38°47' E 000°33'1413.9
2016-Feb-02 13:33N 38°36' E 000°23'1414.1
2016-Feb-02 12:33N 38°24' E 000°13'1414.0
2016-Feb-02 11:33N 38°13' E 000°02'1413.9
2016-Feb-02 10:33N 38°01' W 000°07'1413.9
2016-Feb-02 09:33N 37°50' W 000°16'1414.0
2016-Feb-02 08:34N 37°38' W 000°26'1414.0
2016-Feb-02 07:33N 37°28' W 000°38'1414.1
2016-Feb-02 06:33N 37°18' W 000°51'1414.2
2016-Feb-02 05:33N 37°08' W 001°04'1414.5
2016-Feb-02 04:33N 36°59' W 001°18'189 7.3
2016-Feb-01 02:31N 36°04' W 005°03'2020.4
2016-Feb-01 01:33N 35°58' W 005°26'  
2016-Jan-29 17:31N 28°44' W 016°06'1615.6
2016-Jan-29 16:29N 28°28' W 016°11'3 2.6
2016-Jan-29 15:14N 28°29' W 016°14'0 0.0
2016-Jan-29 14:26N 28°29' W 016°14'0 0.0
2016-Jan-29 13:33N 28°29' W 016°14'0 0.0
2016-Jan-29 12:21N 28°29' W 016°14'  
Track history (hours):
 
Tides and Currents Weather Stations Pressure Air Temp Water Temp Dewpoint Dewpoint Depression Visibility Wind Speed Wind Dir Waves Ship Positions

Norwegian Epic

Last reported at 2016-Feb-08 12:20 UTC. Time now 2016-Feb-08 21:07 UTC.
Position N 38°50' E 015°08'.

Length 329 m; draft 9 m.

Type: Passenger vessel. MMSI: 311018500.

Date/timePositionNaut miles runAvg speedWind from/ knotsBaromVisibWave heightAir tempDewpointWater temp
2016-Feb-08 12:20N 38°50' E 015°08'4 4.6
2016-Feb-08 11:27N 38°50' E 015°14'4 4.2
2016-Feb-08 10:32N 38°46' E 015°15'4 1.9
2016-Feb-08 08:29N 38°46' E 015°10'6 6.1
2016-Feb-08 07:32N 38°48' E 015°17'7 6.2
2016-Feb-08 06:24N 38°50' E 015°08'910.2
2016-Feb-08 05:30N 38°53' E 014°57'1010.1
2016-Feb-08 04:30N 38°55' E 014°44'33 7.8
2016-Feb-08 00:15N 38°42' E 014°05'7 9.2
2016-Feb-07 23:30N 38°36' E 014°01'9 9.2
2016-Feb-07 22:33N 38°33' E 013°50'7 7.3
2016-Feb-07 21:33N 38°41' E 013°52'8 7.7
2016-Feb-07 20:33N 38°34' E 013°56'9 9.1
2016-Feb-07 19:33N 38°27' E 013°48'10 9.7
2016-Feb-07 18:33N 38°20' E 013°39'9 9.1
2016-Feb-07 17:33N 38°14' E 013°31'7 7.1
2016-Feb-07 16:34N 38°08' E 013°25'3 2.5
2016-Feb-07 15:33N 38°08' E 013°22'0 0.0
2016-Feb-07 14:33N 38°08' E 013°22'0 0.0
2016-Feb-07 13:31N 38°08' E 013°22'0 0.0
2016-Feb-07 12:32N 38°08' E 013°22'0 0.0
2016-Feb-07 11:32N 38°08' E 013°22'0 0.0
2016-Feb-07 10:33N 38°08' E 013°22'0 0.0
2016-Feb-07 09:31N 38°08' E 013°22'0 0.0
2016-Feb-07 08:31N 38°08' E 013°22'0 0.0
2016-Feb-07 07:32N 38°08' E 013°22'1 0.7
2016-Feb-07 06:33N 38°07' E 013°23'6 5.5
2016-Feb-07 05:33N 38°12' E 013°26'1211.7
2016-Feb-07 04:33N 38°23' E 013°31'1110.6
2016-Feb-07 03:33N 38°25' E 013°18'1111.3
2016-Feb-07 02:33N 38°26' E 013°04'1211.6
2016-Feb-07 01:33N 38°27' E 012°49'1211.4
2016-Feb-07 00:28N 38°27' E 012°33'3 0.7
2016-Feb-06 20:33N 38°30' E 012°33'10 8.5
2016-Feb-06 19:24N 38°26' E 012°21'100 7.1
2016-Feb-06 05:21N 38°28' E 010°13'8 7.0
2016-Feb-06 04:12N 38°28' E 010°03'34 7.1
2016-Feb-05 23:26N 38°32' E 009°20'8 7.5
2016-Feb-05 22:26N 38°39' E 009°18'6 7.0
2016-Feb-05 21:34N 38°45' E 009°16'7 7.0
2016-Feb-05 20:33N 38°52' E 009°12'6 6.2
2016-Feb-05 19:33N 38°58' E 009°11'7 6.9
2016-Feb-05 18:33N 39°04' E 009°08'8 8.4
2016-Feb-05 17:33N 39°12' E 009°06'0 0.0
2016-Feb-05 16:31N 39°13' E 009°06'0 0.0
2016-Feb-05 15:32N 39°13' E 009°06'0 0.0
2016-Feb-05 14:33N 39°13' E 009°06'0 0.0
2016-Feb-05 13:33N 39°13' E 009°06'0 0.0
2016-Feb-05 12:31N 39°13' E 009°06'0 0.0
2016-Feb-05 11:32N 39°13' E 009°06'0 0.0
2016-Feb-05 10:32N 39°13' E 009°06'0 0.1
2016-Feb-05 09:33N 39°13' E 009°06'0 0.1
2016-Feb-05 08:31N 39°13' E 009°06'0 0.0
2016-Feb-05 07:31N 39°13' E 009°06'0 0.1
2016-Feb-05 06:33N 39°12' E 009°06'6 5.7
2016-Feb-05 05:33N 39°07' E 009°08'1211.9
2016-Feb-05 04:33N 38°57' E 009°16'1312.8
2016-Feb-05 03:33N 38°53' E 009°32'14 2.9
2016-Feb-04 22:33N 38°40' E 009°23'1313.3
2016-Feb-04 21:32N 38°38' E 009°07'1313.4
2016-Feb-04 20:33N 38°38' E 008°50'1614.1
2016-Feb-04 19:25N 38°37' E 008°29'23913.2
2016-Feb-04 01:22N 40°33' E 003°59'1613.3
2016-Feb-04 00:10N 40°39' E 003°39'813.5
2016-Feb-03 23:33N 40°43' E 003°29'1211.7
2016-Feb-03 22:34N 40°47' E 003°15'1111.0
2016-Feb-03 21:33N 40°49' E 003°01'9 8.6
2016-Feb-03 20:34N 40°57' E 002°58'1010.3
2016-Feb-03 19:33N 41°01' E 002°45'1111.2
2016-Feb-03 18:33N 41°07' E 002°32'1211.9
2016-Feb-03 17:31N 41°13' E 002°18'1010.0
2016-Feb-03 16:34N 41°21' E 002°10'1 0.4
2016-Feb-03 13:09N 41°22' E 002°11'0 0.0
2016-Feb-03 12:22N 41°22' E 002°11'0 0.0
2016-Feb-03 04:15N 41°22' E 002°11'0 0.2
2016-Feb-03 03:33N 41°22' E 002°11'8 8.0
2016-Feb-03 02:33N 41°14' E 002°09'1312.5
2016-Feb-03 01:33N 41°03' E 002°02'1413.8
2016-Feb-03 00:33N 40°50' E 001°53'1413.7
2016-Feb-02 23:33N 40°38' E 001°45'1413.9
2016-Feb-02 22:33N 40°26' E 001°37'1313.4
2016-Feb-02 21:33N 40°14' E 001°29'1313.4
2016-Feb-02 20:33N 40°02' E 001°21'1413.6
2016-Feb-02 19:33N 39°50' E 001°13'4213.8
2016-Feb-02 16:30N 39°12' E 000°48'1414.3
2016-Feb-02 15:33N 38°60' E 000°42'1414.0
2016-Feb-02 14:33N 38°47' E 000°33'1413.9
2016-Feb-02 13:33N 38°36' E 000°23'1414.1
2016-Feb-02 12:33N 38°24' E 000°13'1414.0
2016-Feb-02 11:33N 38°13' E 000°02'1413.9
2016-Feb-02 10:33N 38°01' W 000°07'1413.9
2016-Feb-02 09:33N 37°50' W 000°16'1414.0
2016-Feb-02 08:34N 37°38' W 000°26'1414.0
2016-Feb-02 07:33N 37°28' W 000°38'1414.1
2016-Feb-02 06:33N 37°18' W 000°51'1414.2
2016-Feb-02 05:33N 37°08' W 001°04'1414.5
2016-Feb-02 04:33N 36°59' W 001°18'189 7.3
2016-Feb-01 02:31N 36°04' W 005°03'2020.4
2016-Feb-01 01:33N 35°58' W 005°26'  
2016-Jan-29 17:31N 28°44' W 016°06'1615.6
2016-Jan-29 16:29N 28°28' W 016°11'3 2.6
2016-Jan-29 15:14N 28°29' W 016°14'0 0.0
2016-Jan-29 14:26N 28°29' W 016°14'0 0.0
2016-Jan-29 13:33N 28°29' W 016°14'0 0.0
2016-Jan-29 12:21N 28°29' W 016°14'  

Dump ship's entire track history